KPVD/PVD METAR and TAF weather

Enter ICAO airport designator
Station Type Date Time Source
KPVD METAR 2021/06/22 21:51 UTC NOAA

KPVD 222151Z 28009KT 6SM -RA BR FEW010 BKN055 OVC090 19/17 A2976 RMK AO2 LTG DSNT NE AND E PRESRR SLP076 P0004 T01890172


Station Type Date Time Source
KPVD Decoded METAR 2021/06/22 21:51 UTC NOAA

PROVIDENCE GREEN STATE AIRPORT , RI, United States (KPVD) 41-44N 071-26W 16M
Jun 22, 2021 - 05:51 PM EDT / 2021.06.22 2151 UTC
Wind: from the W (280 degrees) at 10 MPH (9 KT):0
Visibility: 6 mile(s):0
Sky conditions: overcast
Weather: light rain; mist; Lightning observed
Precipitation last hour: 0.04 inches
Temperature: 66.0 F (18.9 C)
Dew Point: 63.0 F (17.2 C)
Relative Humidity: 89%
Pressure (altimeter): 29.76 in. Hg (1007 hPa)
Pressure tendency: rising rapidly
ob: KPVD 222151Z 28009KT 6SM -RA BR FEW010 BKN055 OVC090 19/17 A2976 RMK AO2 LTG DSNT NE AND E PRESRR SLP076 P0004 T01890172
cycle: 22

Station Type Date Time Source
KPVD TAF 2021/06/22 21:45 UTC NOAA

TAF
AMD KPVD 222043Z 2221/2318 27010KT 5SM -SHRA VCTS OVC030CB
FM222300 30010KT P6SM -SHRA OVC020
FM230300 31007KT P6SM OVC035
FM230600 31007KT P6SM BKN060
FM231200 33009KT P6SM FEW250

Example: see airport list